createdAt,value
2023-10-10T00:01:29.648Z,4.78
2023-10-10T00:04:36.016Z,4.87
2023-10-10T00:07:43.022Z,5.60
2023-10-10T00:10:48.494Z,5.83
2023-10-10T00:13:54.157Z,5.33
2023-10-10T00:17:03.431Z,5.45
2023-10-10T00:20:11.744Z,5.62
2023-10-10T00:23:23.285Z,4.70
2023-10-10T00:26:29.789Z,5.85
2023-10-10T00:29:36.485Z,4.85
2023-10-10T00:32:44.745Z,4.70
2023-10-10T00:35:52.693Z,4.95
2023-10-10T00:39:01.480Z,4.58
2023-10-10T00:42:09.485Z,4.50
2023-10-10T00:45:17.458Z,4.37
2023-10-10T00:48:25.695Z,4.65
2023-10-10T00:51:31.517Z,4.40
2023-10-10T00:54:41.043Z,4.30
2023-10-10T00:57:47.788Z,4.33
2023-10-10T01:00:55.916Z,4.22
2023-10-10T01:04:04.627Z,4.30
2023-10-10T01:07:17.919Z,4.10
2023-10-10T01:10:27.351Z,4.17
2023-10-10T01:13:35.428Z,4.42
2023-10-10T01:16:41.451Z,4.55
2023-10-10T01:19:50.512Z,4.42
2023-10-10T01:22:56.942Z,4.75
2023-10-10T01:26:05.311Z,4.53
2023-10-10T01:29:13.391Z,4.78
2023-10-10T01:32:19.587Z,4.72
2023-10-10T01:35:25.203Z,5.78
2023-10-10T01:38:54.199Z,5.78
2023-10-10T01:42:01.383Z,4.85
2023-10-10T01:45:09.627Z,5.47
2023-10-10T01:48:17.808Z,4.80
2023-10-10T01:51:26.048Z,5.65
2023-10-10T01:54:44.643Z,5.60
2023-10-10T01:57:49.769Z,5.35
2023-10-10T02:00:58.239Z,5.28
2023-10-10T02:04:04.309Z,5.37
2023-10-10T02:07:13.232Z,5.30
2023-10-10T02:10:21.286Z,5.37
2023-10-10T02:13:28.273Z,4.97
2023-10-10T02:16:36.407Z,5.20
2023-10-10T02:19:36.943Z,5.55
2023-10-10T02:22:30.945Z,5.20
2023-10-10T02:25:34.793Z,5.62
2023-10-10T02:28:54.012Z,5.58
2023-10-10T02:32:20.403Z,5.25
2023-10-10T02:35:38.126Z,5.17
2023-10-10T02:38:53.000Z,5.85
2023-10-10T02:41:59.631Z,6.00
2023-10-10T02:45:06.022Z,5.30
2023-10-10T02:48:15.637Z,5.47
2023-10-10T02:51:23.104Z,5.95
2023-10-10T02:54:32.117Z,8.33
2023-10-10T02:57:38.265Z,5.10
2023-10-10T03:00:45.876Z,5.75
2023-10-10T03:03:52.452Z,6.10
2023-10-10T03:06:58.528Z,5.92
2023-10-10T03:10:22.955Z,5.45
2023-10-10T03:13:42.841Z,5.28
2023-10-10T03:16:52.167Z,5.75
2023-10-10T03:20:00.499Z,5.47
2023-10-10T03:23:14.278Z,5.70
2023-10-10T03:26:22.489Z,4.78
2023-10-10T03:29:46.232Z,5.17
2023-10-10T03:32:57.325Z,5.35
2023-10-10T03:36:22.678Z,5.25
2023-10-10T03:39:33.781Z,5.28
2023-10-10T03:42:58.525Z,4.95
2023-10-10T03:46:22.689Z,5.92
2023-10-10T03:49:46.658Z,6.60
2023-10-10T03:53:10.008Z,4.72
2023-10-10T03:56:34.847Z,5.70
2023-10-10T03:59:58.092Z,5.50
2023-10-10T04:03:24.582Z,5.62
2023-10-10T04:06:49.203Z,5.42
2023-10-10T04:10:11.995Z,5.55
2023-10-10T04:13:36.306Z,6.10
2023-10-10T04:17:00.796Z,5.75
2023-10-10T04:20:17.738Z,5.33
2023-10-10T04:23:42.807Z,5.47
2023-10-10T04:27:08.303Z,5.65
2023-10-10T04:30:30.641Z,6.03
2023-10-10T04:33:54.941Z,6.15
2023-10-10T04:37:18.253Z,5.75
2023-10-10T04:40:43.623Z,5.62
2023-10-10T04:44:08.328Z,6.12
2023-10-10T04:47:31.830Z,6.50
2023-10-10T04:50:55.359Z,6.58
2023-10-10T04:54:19.282Z,7.20
2023-10-10T04:57:43.067Z,7.22
2023-10-10T05:01:07.503Z,7.62
2023-10-10T05:04:32.812Z,7.92
2023-10-10T05:07:56.313Z,7.95
2023-10-10T05:11:19.933Z,7.45
2023-10-10T05:14:44.129Z,7.45
2023-10-10T05:18:08.439Z,6.62
2023-10-10T05:21:36.612Z,6.87
2023-10-10T05:24:47.007Z,6.90
2023-10-10T05:28:09.650Z,6.08
2023-10-10T05:31:18.394Z,6.00
2023-10-10T05:34:24.047Z,6.22
2023-10-10T05:37:29.782Z,6.08
2023-10-10T05:40:39.218Z,5.55
2023-10-10T05:43:45.264Z,5.50
2023-10-10T05:46:52.226Z,5.70
2023-10-10T05:50:13.602Z,5.22
2023-10-10T05:53:22.611Z,5.55
2023-10-10T05:56:31.660Z,5.87
2023-10-10T05:59:38.910Z,4.30
2023-10-10T06:02:44.904Z,4.85
2023-10-10T06:05:55.862Z,5.15
2023-10-10T06:09:03.169Z,4.92
2023-10-10T06:12:15.258Z,5.55
2023-10-10T06:15:25.815Z,6.15
2023-10-10T06:18:31.414Z,5.08
2023-10-10T06:21:41.008Z,4.92
2023-10-10T06:24:47.366Z,6.00
2023-10-10T06:27:58.252Z,5.45
2023-10-10T06:31:07.812Z,5.20
2023-10-10T06:34:15.595Z,5.65
2023-10-10T06:37:20.995Z,5.62
2023-10-10T06:40:33.555Z,5.87
2023-10-10T06:43:40.978Z,5.35
2023-10-10T06:46:46.042Z,5.40
2023-10-10T06:50:04.000Z,5.90
2023-10-10T06:53:11.681Z,6.20
2023-10-10T06:56:25.702Z,6.08
2023-10-10T06:59:33.183Z,5.00
2023-10-10T07:02:41.773Z,5.80
2023-10-10T07:05:50.089Z,5.22
2023-10-10T07:09:03.417Z,4.62
2023-10-10T07:12:18.951Z,4.72
2023-10-10T07:15:24.939Z,4.42
2023-10-10T07:18:31.408Z,3.58
2023-10-10T07:21:43.244Z,3.77
2023-10-10T07:24:49.725Z,4.30
2023-10-10T07:27:55.348Z,3.77
2023-10-10T07:31:09.271Z,4.10
2023-10-10T07:34:17.157Z,3.12
2023-10-10T07:37:24.543Z,3.30
2023-10-10T07:40:33.296Z,3.37
2023-10-10T07:43:40.043Z,3.50
2023-10-10T07:46:51.025Z,2.87
2023-10-10T07:50:06.972Z,3.08
2023-10-10T07:53:14.654Z,2.70
2023-10-10T07:56:22.427Z,2.67
2023-10-10T07:59:28.973Z,3.17
2023-10-10T08:02:36.777Z,2.70
2023-10-10T08:05:44.360Z,2.52
2023-10-10T08:08:50.765Z,2.92
2023-10-10T08:11:58.752Z,2.65
2023-10-10T08:15:07.543Z,3.17
2023-10-10T08:18:16.440Z,3.10
2023-10-10T08:21:36.727Z,3.42
2023-10-10T08:24:49.244Z,2.92
2023-10-10T08:27:56.696Z,2.50
2023-10-10T08:31:04.037Z,2.62
2023-10-10T08:34:10.754Z,3.20
2023-10-10T08:37:18.069Z,3.05
2023-10-10T08:40:26.638Z,2.90
2023-10-10T08:43:34.598Z,2.97
2023-10-10T08:46:52.487Z,2.70
2023-10-10T08:49:59.331Z,3.17
2023-10-10T08:53:07.892Z,3.45
2023-10-10T08:56:15.407Z,3.60
2023-10-10T08:59:27.237Z,3.05
2023-10-10T09:02:35.726Z,3.05
2023-10-10T09:05:42.122Z,3.45
2023-10-10T09:12:09.737Z,3.35
2023-10-10T09:15:12.951Z,3.50
2023-10-10T09:18:34.238Z,3.17
2023-10-10T09:21:39.753Z,4.45
2023-10-10T09:24:49.192Z,2.55
2023-10-10T09:27:56.780Z,1.85
2023-10-10T09:31:18.080Z,2.17
2023-10-10T09:34:26.467Z,2.87
2023-10-10T09:37:35.282Z,2.90
2023-10-10T09:40:41.304Z,2.37
2023-10-10T09:43:49.004Z,2.17
2023-10-10T09:46:50.639Z,1.87
2023-10-10T09:50:06.651Z,1.52
2023-10-10T09:53:15.543Z,1.85
2023-10-10T09:56:21.760Z,1.98
2023-10-10T09:59:32.674Z,2.35
2023-10-10T10:02:52.353Z,3.25
2023-10-10T10:06:00.732Z,3.27
2023-10-10T10:09:46.504Z,4.40
2023-10-10T10:12:59.188Z,3.92
2023-10-10T10:16:46.594Z,4.03
2023-10-10T10:19:57.498Z,3.67
2023-10-10T10:23:08.459Z,3.02
2023-10-10T10:26:23.468Z,4.22
2023-10-10T10:29:48.330Z,3.12
2023-10-10T10:33:01.540Z,3.90
2023-10-10T10:36:18.162Z,4.03
2023-10-10T10:39:37.201Z,3.17
2023-10-10T10:42:45.260Z,2.92
2023-10-10T10:45:53.780Z,3.15
2023-10-10T10:49:03.665Z,4.10
2023-10-10T10:52:23.148Z,4.33
2023-10-10T10:55:31.865Z,3.02
2023-10-10T10:58:39.009Z,3.37
2023-10-10T11:01:44.210Z,2.10
2023-10-10T11:04:51.620Z,2.15
2023-10-10T11:08:04.268Z,2.15
2023-10-10T11:11:11.418Z,1.80
2023-10-10T11:14:21.136Z,2.12
2023-10-10T11:20:37.233Z,2.20
2023-10-10T11:23:45.903Z,5.70
2023-10-10T11:26:52.784Z,2.67
2023-10-10T11:30:04.812Z,3.00
2023-10-10T11:33:12.307Z,2.33
2023-10-10T11:36:47.804Z,2.80
2023-10-10T11:39:57.750Z,2.45
2023-10-10T11:43:04.562Z,2.37
2023-10-10T11:46:10.522Z,3.10
2023-10-10T11:49:17.722Z,2.62
2023-10-10T11:52:35.309Z,3.60
2023-10-10T11:55:43.124Z,3.25
2023-10-10T11:58:51.491Z,3.40
2023-10-10T12:02:00.407Z,2.05
2023-10-10T12:05:07.104Z,1.82
2023-10-10T12:08:16.560Z,1.75
2023-10-10T12:14:32.327Z,1.55
2023-10-10T12:17:39.852Z,1.30
2023-10-10T12:20:48.247Z,1.07
2023-10-10T12:24:01.444Z,1.30
2023-10-10T12:27:04.459Z,1.65
2023-10-10T12:30:13.076Z,1.42
2023-10-10T12:33:24.148Z,1.82
2023-10-10T12:36:32.779Z,1.60
2023-10-10T12:39:39.149Z,1.57
2023-10-10T12:42:47.051Z,1.25
2023-10-10T12:45:55.993Z,1.20
2023-10-10T12:49:01.579Z,1.57
2023-10-10T12:52:09.079Z,1.22
2023-10-10T12:55:17.045Z,0.90
2023-10-10T12:58:26.943Z,2.00
2023-10-10T13:01:32.795Z,1.40
2023-10-10T13:04:44.142Z,1.85
2023-10-10T13:07:51.312Z,1.75
2023-10-10T13:11:03.678Z,1.35
2023-10-10T13:14:19.833Z,1.50
2023-10-10T13:17:38.683Z,1.35
2023-10-10T13:20:46.503Z,1.65
2023-10-10T13:23:53.294Z,1.20
2023-10-10T13:27:01.391Z,1.77
2023-10-10T13:30:08.257Z,1.57
2023-10-10T13:33:15.571Z,1.50
2023-10-10T13:36:25.712Z,1.62
2023-10-10T13:39:34.062Z,1.85
2023-10-10T13:42:40.128Z,1.50
2023-10-10T13:45:49.592Z,1.50
2023-10-10T13:51:56.101Z,1.20
2023-10-10T13:55:03.942Z,1.35
2023-10-10T13:58:10.406Z,1.20
2023-10-10T14:01:24.720Z,1.45
2023-10-10T14:04:35.801Z,1.37
2023-10-10T14:07:42.130Z,1.77
2023-10-10T14:10:58.185Z,1.75
2023-10-10T14:14:08.473Z,3.65
2023-10-10T14:17:14.461Z,3.90
2023-10-10T14:20:28.946Z,3.17
2023-10-10T14:23:38.396Z,1.90
2023-10-10T14:26:43.724Z,2.00
2023-10-10T14:29:51.900Z,1.50
2023-10-10T14:33:00.667Z,1.82
2023-10-10T14:36:01.282Z,1.87
2023-10-10T14:38:51.820Z,2.20
2023-10-10T14:41:44.005Z,2.05
2023-10-10T14:44:36.367Z,2.30
2023-10-10T14:47:44.283Z,1.85
2023-10-10T14:50:57.211Z,2.00
2023-10-10T14:54:03.959Z,1.92
2023-10-10T14:57:09.974Z,1.87
2023-10-10T15:00:18.155Z,2.05
2023-10-10T15:03:24.938Z,2.25
2023-10-10T15:06:30.888Z,3.20
2023-10-10T15:09:36.688Z,2.85
2023-10-10T15:12:42.388Z,3.52
2023-10-10T15:15:49.779Z,6.25
2023-10-10T15:18:57.694Z,5.50
2023-10-10T15:22:03.607Z,2.85
2023-10-10T15:25:11.204Z,2.98
2023-10-10T15:28:19.308Z,2.90
2023-10-10T15:31:25.058Z,2.95
2023-10-10T15:34:31.380Z,2.40
2023-10-10T15:37:38.774Z,2.85
2023-10-10T15:40:51.195Z,2.00
2023-10-10T15:43:57.029Z,2.17
2023-10-10T15:47:05.553Z,2.42
2023-10-10T15:50:13.497Z,2.50
2023-10-10T15:53:20.325Z,2.20
2023-10-10T15:56:29.135Z,2.98
2023-10-10T15:59:35.498Z,3.12
2023-10-10T16:02:42.992Z,2.85
2023-10-10T16:05:56.171Z,2.40
2023-10-10T16:09:06.769Z,3.00
2023-10-10T16:12:14.400Z,2.17
2023-10-10T16:15:31.048Z,2.52
2023-10-10T16:18:30.610Z,2.37
2023-10-10T16:21:36.463Z,3.02
2023-10-10T16:24:44.221Z,2.90
2023-10-10T16:27:57.627Z,2.25
2023-10-10T16:31:03.791Z,2.47
2023-10-10T16:34:13.712Z,2.87
2023-10-10T16:37:29.708Z,2.60
2023-10-10T16:40:40.418Z,2.12
2023-10-10T16:43:58.645Z,2.35
2023-10-10T16:50:01.881Z,2.67
2023-10-10T16:53:11.417Z,2.85
2023-10-10T16:56:26.007Z,3.20
2023-10-10T16:59:13.741Z,2.95
2023-10-10T17:02:07.260Z,2.95
2023-10-10T17:05:00.139Z,3.55
2023-10-10T17:08:05.599Z,7.15
2023-10-10T17:11:19.608Z,6.78
2023-10-10T17:14:26.875Z,5.85
2023-10-10T17:17:33.283Z,8.55
2023-10-10T17:20:39.795Z,11.88
2023-10-10T17:23:47.070Z,8.18
2023-10-10T17:26:53.913Z,3.92
2023-10-10T17:30:05.540Z,4.75
2023-10-10T17:33:12.178Z,4.78
2023-10-10T17:36:17.888Z,4.47
2023-10-10T17:39:23.763Z,3.90
2023-10-10T17:42:22.557Z,4.30
2023-10-10T17:45:20.016Z,5.53
2023-10-10T17:48:28.881Z,5.92
2023-10-10T17:51:39.987Z,8.33
2023-10-10T17:54:47.202Z,8.48
2023-10-10T17:57:52.218Z,8.10
2023-10-10T18:01:00.412Z,7.58
2023-10-10T18:04:06.572Z,7.40
2023-10-10T18:07:13.353Z,6.62
2023-10-10T18:10:21.231Z,6.95
2023-10-10T18:13:26.659Z,7.10
2023-10-10T18:16:34.249Z,5.37
2023-10-10T18:19:39.540Z,5.75
2023-10-10T18:22:47.473Z,5.10
2023-10-10T18:25:53.615Z,5.10
2023-10-10T18:29:02.831Z,6.00
2023-10-10T18:32:10.944Z,4.55
2023-10-10T18:35:19.974Z,4.30
2023-10-10T18:38:27.890Z,5.00
2023-10-10T18:41:31.217Z,4.60
2023-10-10T18:44:18.017Z,4.67
2023-10-10T18:47:10.404Z,5.53
2023-10-10T18:49:56.552Z,6.45
2023-10-10T18:52:49.831Z,5.70
2023-10-10T18:55:43.461Z,6.87
2023-10-10T18:58:50.958Z,5.55
2023-10-10T19:01:56.640Z,6.70
2023-10-10T19:05:04.236Z,7.22
2023-10-10T19:08:12.772Z,7.17
2023-10-10T19:11:19.258Z,6.55
2023-10-10T19:14:24.851Z,7.20
2023-10-10T19:17:30.539Z,6.85
2023-10-10T19:20:39.831Z,7.45
2023-10-10T19:23:46.402Z,7.07
2023-10-10T19:26:54.628Z,7.78
2023-10-10T19:30:00.890Z,8.23
2023-10-10T19:33:09.177Z,8.73
2023-10-10T19:36:15.866Z,10.53
2023-10-10T19:39:23.591Z,12.33
2023-10-10T19:42:29.585Z,13.88
2023-10-10T19:45:37.464Z,13.35
2023-10-10T19:48:44.489Z,12.73
2023-10-10T19:51:52.732Z,12.55
2023-10-10T19:55:12.648Z,11.55
2023-10-10T19:58:07.008Z,9.68
2023-10-10T20:01:13.371Z,9.78
2023-10-10T20:04:22.529Z,9.20
2023-10-10T20:07:29.076Z,9.88
2023-10-10T20:10:36.243Z,9.30
2023-10-10T20:13:40.953Z,9.00
2023-10-10T20:16:46.944Z,8.53
2023-10-10T20:19:54.105Z,8.48
2023-10-10T20:23:07.131Z,9.73
2023-10-10T20:26:14.822Z,9.65
2023-10-10T20:29:23.582Z,9.98
2023-10-10T20:32:29.992Z,11.35
2023-10-10T20:35:40.865Z,13.55
2023-10-10T20:38:47.996Z,13.98
2023-10-10T20:41:56.810Z,13.93
2023-10-10T20:45:04.307Z,11.83
2023-10-10T20:48:11.359Z,12.50
2023-10-10T20:51:17.772Z,13.85
2023-10-10T20:54:24.490Z,13.68
2023-10-10T20:57:32.576Z,14.53
2023-10-10T21:00:43.035Z,13.78
2023-10-10T21:03:48.587Z,14.70
2023-10-10T21:06:55.468Z,14.55
2023-10-10T21:10:01.866Z,14.43
2023-10-10T21:13:10.243Z,14.05
2023-10-10T21:16:17.674Z,14.03
2023-10-10T21:19:24.032Z,13.30
2023-10-10T21:22:30.823Z,13.15
2023-10-10T21:25:37.939Z,13.45
2023-10-10T21:28:45.117Z,12.73
2023-10-10T21:31:50.734Z,12.80
2023-10-10T21:34:58.277Z,12.78
2023-10-10T21:38:06.395Z,11.57
2023-10-10T21:41:19.193Z,12.15
2023-10-10T21:44:27.655Z,12.05
2023-10-10T21:47:32.825Z,12.47
2023-10-10T21:50:38.518Z,12.03
2023-10-10T21:53:44.902Z,11.45
2023-10-10T21:56:51.173Z,12.58
2023-10-10T21:59:58.672Z,14.83
2023-10-10T22:03:13.356Z,11.50
2023-10-10T22:06:20.236Z,14.87
2023-10-10T22:09:25.794Z,14.38
2023-10-10T22:12:31.912Z,13.95
2023-10-10T22:15:40.491Z,14.25
2023-10-10T22:18:46.703Z,15.63
2023-10-10T22:21:54.623Z,16.50
2023-10-10T22:24:59.842Z,18.60
2023-10-10T22:28:08.368Z,20.12
2023-10-10T22:31:14.430Z,22.77
2023-10-10T22:34:20.455Z,23.47
2023-10-10T22:37:26.725Z,25.95
2023-10-10T22:40:35.883Z,26.82
2023-10-10T22:43:44.357Z,26.40
2023-10-10T22:46:51.634Z,25.62
2023-10-10T22:49:57.615Z,25.70
2023-10-10T22:53:09.684Z,24.70
2023-10-10T22:56:15.099Z,23.32
2023-10-10T22:59:21.168Z,22.15
2023-10-10T23:02:27.473Z,20.25
2023-10-10T23:05:33.690Z,20.43
2023-10-10T23:08:38.778Z,19.55
2023-10-10T23:11:45.426Z,17.87
2023-10-10T23:14:53.073Z,18.20
2023-10-10T23:18:01.596Z,17.82
2023-10-10T23:21:07.359Z,18.15
2023-10-10T23:24:17.654Z,17.62
2023-10-10T23:27:25.866Z,17.35
2023-10-10T23:30:34.592Z,16.45
2023-10-10T23:33:41.669Z,17.75
2023-10-10T23:36:41.972Z,16.77
2023-10-10T23:39:50.283Z,15.70
2023-10-10T23:42:59.024Z,16.73
2023-10-10T23:46:06.977Z,17.55
2023-10-10T23:49:15.286Z,15.93
2023-10-10T23:52:24.227Z,15.38
2023-10-10T23:55:30.247Z,15.38
2023-10-10T23:58:37.174Z,13.65
